sensor_id;sensor_type;location;lat;lon;timestamp;pressure;altitude;pressure_sealevel;temperature;humidity
3464;BME280;3551;41.578;24.706;2023-03-03T04:52:15;91023.38;;;3.16;100.00
3464;BME280;3551;41.578;24.706;2023-03-03T04:55:03;91016.56;;;3.15;100.00
3464;BME280;3551;41.578;24.706;2023-03-03T04:58:05;91024.00;;;3.10;100.00
3464;BME280;3551;41.578;24.706;2023-03-03T05:00:46;91022.44;;;3.47;100.00
3464;BME280;3551;41.578;24.706;2023-03-03T05:03:48;91024.25;;;3.66;100.00
3464;BME280;3551;41.578;24.706;2023-03-03T05:12:58;91026.84;;;4.08;100.00
3464;BME280;3551;41.578;24.706;2023-03-03T05:15:38;91020.47;;;4.12;100.00
3464;BME280;3551;41.578;24.706;2023-03-03T05:18:35;91026.47;;;4.35;100.00
3464;BME280;3551;41.578;24.706;2023-03-03T05:21:17;91025.94;;;4.23;100.00
3464;BME280;3551;41.578;24.706;2023-03-03T05:27:09;91028.31;;;3.60;100.00
3464;BME280;3551;41.578;24.706;2023-03-03T05:33:15;91027.97;;;3.19;100.00
3464;BME280;3551;41.578;24.706;2023-03-03T05:36:14;91034.34;;;3.37;100.00
3464;BME280;3551;41.578;24.706;2023-03-03T05:39:10;91038.41;;;3.77;100.00
3464;BME280;3551;41.578;24.706;2023-03-03T05:42:24;91040.88;;;3.89;100.00
3464;BME280;3551;41.578;24.706;2023-03-03T07:02:18;91073.63;;;3.81;100.00
3464;BME280;3551;41.578;24.706;2023-03-03T08:41:05;91020.88;;;5.66;100.00
3464;BME280;3551;41.578;24.706;2023-03-03T08:44:31;91014.25;;;5.87;100.00
3464;BME280;3551;41.578;24.706;2023-03-03T08:47:27;91014.47;;;6.11;100.00
3464;BME280;3551;41.578;24.706;2023-03-03T08:50:08;91012.19;;;6.13;100.00
3464;BME280;3551;41.578;24.706;2023-03-03T08:52:46;91015.69;;;6.21;100.00
3464;BME280;3551;41.578;24.706;2023-03-03T08:55:16;91015.81;;;6.42;100.00
3464;BME280;3551;41.578;24.706;2023-03-03T08:57:50;91015.09;;;6.42;100.00
3464;BME280;3551;41.578;24.706;2023-03-03T09:00:27;91007.84;;;6.42;100.00
3464;BME280;3551;41.578;24.706;2023-03-03T09:03:06;91014.00;;;6.50;100.00
3464;BME280;3551;41.578;24.706;2023-03-03T09:21:25;91003.34;;;7.22;100.00
3464;BME280;3551;41.578;24.706;2023-03-03T09:24:20;91003.31;;;7.18;100.00
3464;BME280;3551;41.578;24.706;2023-03-03T09:27:26;91001.34;;;7.01;100.00
3464;BME280;3551;41.578;24.706;2023-03-03T09:30:20;90997.19;;;7.00;100.00
3464;BME280;3551;41.578;24.706;2023-03-03T09:54:55;91020.47;;;6.56;100.00
3464;BME280;3551;41.578;24.706;2023-03-03T09:57:28;91017.81;;;6.56;100.00
3464;BME280;3551;41.578;24.706;2023-03-03T10:00:09;91017.75;;;6.45;100.00
3464;BME280;3551;41.578;24.706;2023-03-03T10:02:45;91016.25;;;6.48;100.00
3464;BME280;3551;41.578;24.706;2023-03-03T10:09:35;91012.81;;;6.44;100.00
3464;BME280;3551;41.578;24.706;2023-03-03T10:13:09;91010.38;;;6.21;100.00
3464;BME280;3551;41.578;24.706;2023-03-03T10:15:42;91013.53;;;6.37;100.00
3464;BME280;3551;41.578;24.706;2023-03-03T10:18:22;91008.28;;;6.51;100.00
3464;BME280;3551;41.578;24.706;2023-03-03T10:20:59;91008.00;;;6.63;100.00
3464;BME280;3551;41.578;24.706;2023-03-03T10:23:36;91006.06;;;6.60;100.00
3464;BME280;3551;41.578;24.706;2023-03-03T10:26:14;91004.75;;;6.30;100.00
3464;BME280;3551;41.578;24.706;2023-03-03T10:29:04;91005.56;;;6.37;100.00
3464;BME280;3551;41.578;24.706;2023-03-03T10:31:49;91005.00;;;6.14;100.00
3464;BME280;3551;41.578;24.706;2023-03-03T10:34:41;91008.53;;;6.29;100.00
3464;BME280;3551;41.578;24.706;2023-03-03T10:37:27;90991.81;;;6.25;100.00
3464;BME280;3551;41.578;24.706;2023-03-03T10:40:12;90986.19;;;6.37;100.00
3464;BME280;3551;41.578;24.706;2023-03-03T10:42:46;90992.22;;;6.27;100.00
3464;BME280;3551;41.578;24.706;2023-03-03T10:45:39;90988.53;;;6.42;100.00
3464;BME280;3551;41.578;24.706;2023-03-03T10:48:35;90986.56;;;6.32;100.00
3464;BME280;3551;41.578;24.706;2023-03-03T10:51:50;90977.97;;;5.98;100.00
3464;BME280;3551;41.578;24.706;2023-03-03T12:07:36;90924.88;;;6.63;100.00
3464;BME280;3551;41.578;24.706;2023-03-03T12:11:04;90927.50;;;6.56;100.00
3464;BME280;3551;41.578;24.706;2023-03-03T12:14:15;90917.59;;;6.49;100.00
3464;BME280;3551;41.578;24.706;2023-03-03T12:17:44;90915.75;;;6.53;100.00
3464;BME280;3551;41.578;24.706;2023-03-03T12:21:04;90915.47;;;6.79;100.00
3464;BME280;3551;41.578;24.706;2023-03-03T12:26:43;90913.63;;;6.94;100.00
3464;BME280;3551;41.578;24.706;2023-03-03T12:29:25;90915.94;;;7.10;100.00
3464;BME280;3551;41.578;24.706;2023-03-03T12:32:06;90908.28;;;6.87;100.00
3464;BME280;3551;41.578;24.706;2023-03-03T12:34:53;90905.25;;;6.96;100.00
3464;BME280;3551;41.578;24.706;2023-03-03T12:37:29;90904.91;;;6.97;100.00
3464;BME280;3551;41.578;24.706;2023-03-03T13:06:58;90893.09;;;6.95;100.00
3464;BME280;3551;41.578;24.706;2023-03-03T13:09:43;90888.56;;;6.92;100.00
3464;BME280;3551;41.578;24.706;2023-03-03T13:18:19;90884.09;;;7.34;100.00
3464;BME280;3551;41.578;24.706;2023-03-03T13:24:30;90892.78;;;7.14;100.00
3464;BME280;3551;41.578;24.706;2023-03-03T13:27:19;90893.91;;;7.09;100.00
3464;BME280;3551;41.578;24.706;2023-03-03T13:29:59;90891.97;;;6.92;100.00
3464;BME280;3551;41.578;24.706;2023-03-03T13:32:33;90883.59;;;6.87;100.00
3464;BME280;3551;41.578;24.706;2023-03-03T13:35:19;90895.00;;;6.98;100.00
3464;BME280;3551;41.578;24.706;2023-03-03T13:38:19;90893.53;;;7.11;100.00
3464;BME280;3551;41.578;24.706;2023-03-03T13:43:56;90888.25;;;7.35;100.00
3464;BME280;3551;41.578;24.706;2023-03-03T13:47:02;90885.13;;;6.98;100.00
3464;BME280;3551;41.578;24.706;2023-03-03T13:49:52;90882.94;;;7.18;100.00
3464;BME280;3551;41.578;24.706;2023-03-03T13:55:27;90878.72;;;7.03;100.00
3464;BME280;3551;41.578;24.706;2023-03-03T13:58:06;90878.59;;;6.74;100.00
3464;BME280;3551;41.578;24.706;2023-03-03T14:00:56;90875.19;;;6.67;100.00
3464;BME280;3551;41.578;24.706;2023-03-03T14:03:52;90874.06;;;6.78;100.00
3464;BME280;3551;41.578;24.706;2023-03-03T14:06:23;90876.00;;;6.92;100.00
3464;BME280;3551;41.578;24.706;2023-03-03T14:09:00;90868.84;;;7.21;100.00
3464;BME280;3551;41.578;24.706;2023-03-03T14:11:33;90866.22;;;7.38;100.00
3464;BME280;3551;41.578;24.706;2023-03-03T14:14:52;90870.00;;;7.30;100.00
3464;BME280;3551;41.578;24.706;2023-03-03T14:17:57;90868.09;;;7.24;100.00
3464;BME280;3551;41.578;24.706;2023-03-03T14:20:45;90869.22;;;7.05;100.00
3464;BME280;3551;41.578;24.706;2023-03-03T14:23:40;90863.94;;;7.23;100.00
3464;BME280;3551;41.578;24.706;2023-03-03T14:26:28;90857.50;;;7.34;100.00
3464;BME280;3551;41.578;24.706;2023-03-03T14:29:29;90873.09;;;7.47;100.00
3464;BME280;3551;41.578;24.706;2023-03-03T14:32:24;90873.81;;;7.22;100.00
3464;BME280;3551;41.578;24.706;2023-03-03T14:35:16;90872.59;;;6.95;100.00
3464;BME280;3551;41.578;24.706;2023-03-03T14:41:21;90882.88;;;6.97;100.00
3464;BME280;3551;41.578;24.706;2023-03-03T14:44:27;90886.66;;;6.96;100.00
3464;BME280;3551;41.578;24.706;2023-03-03T14:47:15;90888.06;;;6.61;100.00
3464;BME280;3551;41.578;24.706;2023-03-03T14:50:04;90889.97;;;6.71;100.00
3464;BME280;3551;41.578;24.706;2023-03-03T14:53:06;90882.75;;;6.68;100.00
3464;BME280;3551;41.578;24.706;2023-03-03T14:55:43;90887.69;;;6.59;100.00
3464;BME280;3551;41.578;24.706;2023-03-03T14:58:39;90887.78;;;6.95;100.00
3464;BME280;3551;41.578;24.706;2023-03-03T15:01:34;90885.91;;;6.99;100.00
3464;BME280;3551;41.578;24.706;2023-03-03T15:04:26;90878.28;;;6.79;100.00
3464;BME280;3551;41.578;24.706;2023-03-03T15:10:32;90875.56;;;6.72;100.00
3464;BME280;3551;41.578;24.706;2023-03-03T15:13:11;90877.09;;;6.70;100.00
3464;BME280;3551;41.578;24.706;2023-03-03T15:16:15;90876.59;;;6.36;100.00
3464;BME280;3551;41.578;24.706;2023-03-03T15:22:17;90875.31;;;6.16;100.00
3464;BME280;3551;41.578;24.706;2023-03-03T15:24:59;90887.19;;;6.36;100.00
3464;BME280;3551;41.578;24.706;2023-03-03T15:27:57;90886.53;;;6.53;100.00
3464;BME280;3551;41.578;24.706;2023-03-03T15:30:46;90875.13;;;6.60;100.00
3464;BME280;3551;41.578;24.706;2023-03-03T15:33:18;90881.19;;;6.57;100.00
3464;BME280;3551;41.578;24.706;2023-03-03T15:36:16;90885.66;;;6.35;100.00
3464;BME280;3551;41.578;24.706;2023-03-03T15:39:12;90894.44;;;6.46;100.00
3464;BME280;3551;41.578;24.706;2023-03-03T15:42:09;90880.31;;;6.28;100.00
3464;BME280;3551;41.578;24.706;2023-03-03T15:51:37;90896.91;;;6.11;100.00
3464;BME280;3551;41.578;24.706;2023-03-03T15:54:44;90899.91;;;6.06;100.00
3464;BME280;3551;41.578;24.706;2023-03-03T16:01:26;90902.63;;;6.16;100.00
3464;BME280;3551;41.578;24.706;2023-03-03T16:04:10;90912.59;;;6.37;100.00
3464;BME280;3551;41.578;24.706;2023-03-03T16:13:35;90920.41;;;6.09;100.00
3464;BME280;3551;41.578;24.706;2023-03-03T16:16:50;90925.84;;;6.34;100.00
3464;BME280;3551;41.578;24.706;2023-03-03T16:19:40;90931.28;;;6.55;100.00
3464;BME280;3551;41.578;24.706;2023-03-03T16:22:46;90933.56;;;6.53;100.00
3464;BME280;3551;41.578;24.706;2023-03-03T16:25:57;90939.88;;;6.27;100.00
3464;BME280;3551;41.578;24.706;2023-03-03T16:39:07;90955.59;;;5.99;100.00
3464;BME280;3551;41.578;24.706;2023-03-03T16:42:23;90965.78;;;5.93;100.00
3464;BME280;3551;41.578;24.706;2023-03-03T16:45:49;90963.34;;;6.21;100.00
3464;BME280;3551;41.578;24.706;2023-03-03T16:48:34;90973.63;;;6.27;100.00
3464;BME280;3551;41.578;24.706;2023-03-03T16:51:38;90968.41;;;6.41;100.00
3464;BME280;3551;41.578;24.706;2023-03-03T17:14:05;91009.22;;;6.18;100.00
3464;BME280;3551;41.578;24.706;2023-03-03T17:17:23;91012.94;;;6.10;100.00
3464;BME280;3551;41.578;24.706;2023-03-03T17:20:29;91016.81;;;6.20;100.00
3464;BME280;3551;41.578;24.706;2023-03-03T17:23:34;91021.38;;;6.23;100.00
3464;BME280;3551;41.578;24.706;2023-03-03T17:26:29;91028.94;;;6.17;100.00
3464;BME280;3551;41.578;24.706;2023-03-03T17:29:06;91030.25;;;5.94;100.00
3464;BME280;3551;41.578;24.706;2023-03-03T17:31:45;91036.13;;;5.77;100.00
3464;BME280;3551;41.578;24.706;2023-03-03T17:35:01;91041.41;;;6.10;100.00
3464;BME280;3551;41.578;24.706;2023-03-03T17:41:06;91057.00;;;6.18;100.00
3464;BME280;3551;41.578;24.706;2023-03-03T18:22:45;91077.69;;;5.99;100.00
3464;BME280;3551;41.578;24.706;2023-03-03T18:26:08;91082.91;;;5.88;100.00
3464;BME280;3551;41.578;24.706;2023-03-03T18:29:33;91086.00;;;5.97;100.00
3464;BME280;3551;41.578;24.706;2023-03-03T18:32:17;91085.59;;;5.92;100.00
3464;BME280;3551;41.578;24.706;2023-03-03T19:04:01;91100.78;;;5.61;100.00
3464;BME280;3551;41.578;24.706;2023-03-03T19:07:51;91101.88;;;5.57;100.00
3464;BME280;3551;41.578;24.706;2023-03-03T19:18:02;91101.66;;;5.39;100.00
3464;BME280;3551;41.578;24.706;2023-03-03T19:53:15;91120.72;;;5.52;100.00
3464;BME280;3551;41.578;24.706;2023-03-03T19:56:12;91128.47;;;5.64;100.00
3464;BME280;3551;41.578;24.706;2023-03-03T20:02:42;91115.53;;;5.29;100.00
3464;BME280;3551;41.578;24.706;2023-03-03T20:05:31;91117.41;;;5.25;100.00
